Time;durP1;ratioP1;P1;durP2;ratioP2;P2;SDS_P1;SDS_P2;PMS_P1;PMS_P2;Temp;Humidity;BMP_temperature;BMP_pressure;BME280_temperature;BME280_humidity;BME280_pressure;Samples;Min_cycle;Max_cycle;Signal;HPM_P1;HPM_P2
2023/04/10 00:00:29;;;;;;;38.63;29.70;;;;;;;7.34;80.72;102027.88;1032458;28;20312;-75
2023/04/10 00:01:01;;;;;;;39.97;29.95;;;;;;;7.31;80.35;102027.38;1038233;28;20303;-75
2023/04/10 00:01:34;;;;;;;37.97;29.73;;;;;;;7.28;80.50;102025.06;1036342;28;20694;-75
2023/04/10 00:02:06;;;;;;;36.72;30.25;;;;;;;7.17;80.52;102033.34;1039598;28;20328;-75
2023/04/10 00:02:38;;;;;;;40.08;28.63;;;;;;;7.29;80.79;102024.06;1040724;28;20303;-75
2023/04/10 00:03:10;;;;;;;42.95;30.08;;;;;;;7.27;80.60;102026.06;1044397;28;20394;-76
2023/04/10 00:03:42;;;;;;;37.47;29.33;;;;;;;7.31;79.82;102024.72;1043198;28;20543;-75
2023/04/10 00:04:14;;;;;;;36.15;28.23;;;;;;;7.31;80.06;102022.06;1043708;28;20780;-75
2023/04/10 00:04:46;;;;;;;38.67;28.60;;;;;;;7.24;80.23;102024.56;1044965;28;20299;-76
2023/04/10 00:05:18;;;;;;;33.10;28.00;;;;;;;7.28;80.06;102020.59;1043155;28;20436;-75
2023/04/10 00:05:50;;;;;;;38.58;28.58;;;;;;;7.25;79.98;102020.91;1046124;28;20307;-75
2023/04/10 00:06:22;;;;;;;38.78;29.00;;;;;;;7.26;80.20;102021.75;1043700;28;20303;-76
2023/04/10 00:06:54;;;;;;;36.38;28.23;;;;;;;7.21;80.05;102019.59;1043558;28;20303;-75
2023/04/10 00:07:26;;;;;;;36.90;28.77;;;;;;;7.21;80.49;102016.13;1046177;28;20295;-75
2023/04/10 00:07:57;;;;;;;40.92;30.95;;;;;;;7.21;80.20;102016.94;1039536;28;20302;-75
2023/04/10 00:08:29;;;;;;;37.85;29.63;;;;;;;7.20;80.10;102019.75;1039221;28;20308;-75
2023/04/10 00:09:01;;;;;;;36.65;28.52;;;;;;;7.28;80.54;102017.09;1038836;28;20301;-75
2023/04/10 00:09:33;;;;;;;38.20;29.88;;;;;;;7.29;79.91;102018.75;1040059;28;20304;-75
2023/04/10 00:10:05;;;;;;;38.13;29.52;;;;;;;7.24;80.92;102019.25;1043375;28;20381;-76
2023/04/10 00:10:36;;;;;;;36.08;28.63;;;;;;;7.27;81.14;102026.06;1039487;28;20347;-76
2023/04/10 00:11:08;;;;;;;40.22;29.13;;;;;;;7.21;80.78;102019.59;1035774;28;20695;-76
2023/04/10 00:11:39;;;;;;;38.28;29.88;;;;;;;7.19;80.66;102024.22;1037377;28;20341;-75
2023/04/10 00:12:11;;;;;;;41.72;30.38;;;;;;;7.28;81.20;102030.34;1041169;28;20303;-76
2023/04/10 00:12:43;;;;;;;37.63;29.70;;;;;;;7.19;81.16;102024.22;1043726;28;20302;-76
2023/04/10 00:13:15;;;;;;;41.35;30.45;;;;;;;7.25;80.82;102022.75;1043471;28;20299;-76
2023/04/10 00:13:46;;;;;;;36.47;28.77;;;;;;;7.27;81.06;102026.06;1044057;28;20283;-76
2023/04/10 00:14:22;;;;;;;43.22;31.58;;;;;;;7.22;81.12;102023.91;1043579;28;20307;-75
2023/04/10 00:14:53;;;;;;;36.45;28.48;;;;;;;7.20;81.79;102019.75;1043637;28;20302;-75
2023/04/10 00:15:25;;;;;;;39.47;29.02;;;;;;;7.25;81.25;102023.56;1043714;28;20989;-76
2023/04/10 00:15:57;;;;;;;37.67;29.17;;;;;;;7.28;80.85;102017.09;1044236;28;20291;-75
2023/04/10 00:16:28;;;;;;;37.42;28.92;;;;;;;7.23;80.85;102024.72;1040276;28;20298;-75
2023/04/10 00:17:00;;;;;;;39.85;29.35;;;;;;;7.21;80.78;102021.41;1037796;28;20483;-75
2023/04/10 00:17:32;;;;;;;39.97;29.20;;;;;;;7.30;80.84;102029.19;1040267;28;20288;-75
2023/04/10 00:18:04;;;;;;;40.42;29.05;;;;;;;7.28;80.20;102025.88;1039410;28;20343;-75
2023/04/10 00:18:35;;;;;;;41.10;29.40;;;;;;;7.16;81.05;102029.88;1039252;28;20292;-75
2023/04/10 00:19:07;;;;;;;36.45;29.20;;;;;;;7.23;81.31;102024.72;1036471;28;20328;-75
2023/04/10 00:19:39;;;;;;;36.45;29.05;;;;;;;7.21;81.23;102029.38;1040289;28;20674;-75
2023/04/10 00:20:11;;;;;;;37.13;29.77;;;;;;;7.15;81.99;102032.69;1036562;28;20285;-76
2023/04/10 00:20:43;;;;;;;39.40;28.58;;;;;;;7.32;81.18;102029.03;1036574;28;20292;-75
2023/04/10 00:21:14;;;;;;;37.97;28.17;;;;;;;7.17;81.36;102030.69;1035309;28;20431;-76
2023/04/10 00:21:46;;;;;;;35.28;28.50;;;;;;;7.27;81.41;102021.56;1036463;28;20303;-76
2023/04/10 00:22:17;;;;;;;37.17;28.40;;;;;;;7.34;80.62;102027.88;1040390;28;20635;-75
2023/04/10 00:22:49;;;;;;;36.80;27.80;;;;;;;7.26;80.99;102029.69;1043498;28;20303;-76
2023/04/10 00:23:21;;;;;;;35.38;28.38;;;;;;;7.13;81.33;102023.06;1042335;28;20292;-75
2023/04/10 00:23:52;;;;;;;35.40;27.50;;;;;;;6.96;82.09;102021.38;1045406;28;20352;-75
2023/04/10 00:24:24;;;;;;;36.53;27.85;;;;;;;7.08;82.08;102022.72;1043764;28;20776;-75
2023/04/10 00:24:56;;;;;;;32.97;26.15;;;;;;;7.11;82.34;102024.22;1043705;28;20295;-75
2023/04/10 00:25:28;;;;;;;37.15;27.95;;;;;;;7.11;82.61;102025.03;1044333;28;20325;-76
2023/04/10 00:26:00;;;;;;;36.08;27.00;;;;;;;6.91;82.98;102015.75;1042905;28;20307;-75
2023/04/10 00:26:32;;;;;;;37.17;26.75;;;;;;;6.94;82.59;102026.03;1039285;28;20810;-76
2023/04/10 00:27:03;;;;;;;33.05;25.67;;;;;;;6.87;83.35;102019.72;1033531;28;20825;-76
2023/04/10 00:27:35;;;;;;;33.47;26.80;;;;;;;6.90;83.35;102019.41;1032433;28;20420;-75
2023/04/10 00:28:06;;;;;;;36.03;26.85;;;;;;;6.90;82.61;102022.06;1036116;28;20285;-75
2023/04/10 00:28:38;;;;;;;33.50;27.50;;;;;;;6.75;82.49;102015.72;1035811;28;20304;-76
2023/04/10 00:29:09;;;;;;;36.00;26.77;;;;;;;6.61;84.00;102019.84;1043454;28;20813;-75
2023/04/10 00:29:41;;;;;;;33.45;27.15;;;;;;;6.83;83.29;102013.06;1044551;28;20299;-75
2023/04/10 00:30:13;;;;;;;35.60;27.60;;;;;;;6.82;83.67;102012.25;1042997;28;20295;-75
2023/04/10 00:30:44;;;;;;;31.70;25.83;;;;;;;6.82;83.39;102016.72;1044784;28;20313;-75
2023/04/10 00:31:16;;;;;;;32.55;25.30;;;;;;;6.89;83.65;102016.91;1045336;28;20692;-75
2023/04/10 00:31:48;;;;;;;33.08;26.30;;;;;;;6.90;83.28;102008.81;1044056;28;20306;-76
2023/04/10 00:32:20;;;;;;;35.00;27.17;;;;;;;6.86;83.03;102012.78;1042643;28;20681;-76
2023/04/10 00:32:52;;;;;;;34.25;25.98;;;;;;;6.77;83.23;101995.19;1039453;28;20346;-75
2023/04/10 00:33:23;;;;;;;30.92;26.27;;;;;;;6.72;83.03;102002.81;1040179;28;20296;-76
2023/04/10 00:33:55;;;;;;;32.15;25.27;;;;;;;6.74;83.19;102001.66;1043107;28;20311;-75
2023/04/10 00:34:27;;;;;;;34.60;26.85;;;;;;;6.77;83.58;102001.31;1043809;28;20327;-76
2023/04/10 00:34:58;;;;;;;30.17;24.38;;;;;;;6.74;83.51;102008.75;1041040;28;20662;-75
2023/04/10 00:35:30;;;;;;;36.72;26.17;;;;;;;6.66;83.50;102011.41;1043792;28;20315;-75
2023/04/10 00:36:02;;;;;;;34.72;26.10;;;;;;;6.61;84.34;102003.13;1039453;28;20308;-76
2023/04/10 00:36:34;;;;;;;31.20;25.80;;;;;;;6.88;83.83;102002.03;1039511;28;20370;-76
2023/04/10 00:37:06;;;;;;;31.92;25.77;;;;;;;6.88;83.10;102005.50;1044587;28;20383;-76
2023/04/10 00:37:37;;;;;;;35.17;27.15;;;;;;;6.86;82.70;102002.19;1039863;28;20329;-75
2023/04/10 00:38:09;;;;;;;33.72;25.73;;;;;;;6.90;82.81;101998.22;1038137;28;20319;-76
2023/04/10 00:38:41;;;;;;;30.77;25.80;;;;;;;6.88;82.93;102000.19;1040753;28;20299;-75
2023/04/10 00:39:13;;;;;;;32.22;25.50;;;;;;;6.88;82.43;102002.84;1039793;28;20306;-76
2023/04/10 00:39:45;;;;;;;34.47;24.83;;;;;;;6.83;83.51;101997.19;1045853;28;20295;-75
2023/04/10 00:40:16;;;;;;;31.73;25.33;;;;;;;7.02;82.94;101998.72;1035575;28;20312;-75
2023/04/10 00:40:48;;;;;;;33.20;25.42;;;;;;;7.02;82.45;102002.19;1034920;28;20316;-75
2023/04/10 00:41:20;;;;;;;34.40;25.85;;;;;;;6.99;82.56;101997.22;1035648;28;20296;-75
2023/04/10 00:41:52;;;;;;;31.35;25.25;;;;;;;7.01;82.85;101994.41;1035867;28;20864;-75
2023/04/10 00:42:23;;;;;;;30.98;25.05;;;;;;;7.07;82.33;101994.56;1039571;28;20345;-75
2023/04/10 00:42:55;;;;;;;33.42;25.58;;;;;;;6.94;82.32;101994.25;1035315;28;20837;-76
2023/04/10 00:43:26;;;;;;;31.50;24.98;;;;;;;6.80;82.87;101997.50;1032843;28;20300;-76
2023/04/10 00:43:59;;;;;;;36.45;26.67;;;;;;;6.88;82.81;101994.91;1036498;28;20344;-75
2023/04/10 00:44:30;;;;;;;31.55;25.85;;;;;;;6.89;83.12;101996.56;1035645;28;20313;-74
2023/04/10 00:45:02;;;;;;;32.53;25.83;;;;;;;6.70;82.92;101987.09;1041427;28;20325;-74
2023/04/10 00:45:34;;;;;;;31.95;26.20;;;;;;;6.82;83.57;101993.72;1044592;28;20357;-74
2023/04/10 00:46:06;;;;;;;34.50;26.27;;;;;;;7.01;83.14;101995.22;1039201;28;20300;-74
2023/04/10 00:46:39;;;;;;;33.70;25.42;;;;;;;6.92;83.19;101988.28;1035224;28;20386;-74
2023/04/10 00:47:12;;;;;;;33.55;26.50;;;;;;;6.90;82.30;101987.63;1035401;28;20819;-74
2023/04/10 00:47:44;;;;;;;37.42;25.25;;;;;;;6.84;83.37;101993.53;1035900;28;20660;-74
2023/04/10 00:48:15;;;;;;;32.70;25.55;;;;;;;6.97;82.93;101988.63;1040329;28;20520;-74
2023/04/10 00:48:47;;;;;;;30.95;24.73;;;;;;;6.85;82.71;101984.63;1043191;28;20837;-73
2023/04/10 00:49:19;;;;;;;32.20;25.48;;;;;;;6.70;83.37;101980.97;1035569;28;20328;-74
2023/04/10 00:49:51;;;;;;;30.23;24.98;;;;;;;6.87;83.46;101981.81;1034988;28;20297;-73
2023/04/10 00:50:23;;;;;;;33.53;26.10;;;;;;;6.70;83.56;101981.78;1036325;28;20301;-73
2023/04/10 00:50:54;;;;;;;32.30;24.02;;;;;;;6.77;83.96;101992.53;1036050;28;20300;-73
2023/04/10 00:51:26;;;;;;;35.63;26.13;;;;;;;6.85;83.37;101986.44;1039804;28;20303;-74
2023/04/10 00:51:57;;;;;;;36.33;25.40;;;;;;;6.95;83.37;101990.59;1039095;28;20304;-76
2023/04/10 00:52:29;;;;;;;34.47;23.98;;;;;;;6.90;82.99;101986.78;1040129;28;20371;-76
2023/04/10 00:53:01;;;;;;;33.85;24.98;;;;;;;6.90;82.34;101982.31;1038547;28;20300;-76
2023/04/10 00:53:33;;;;;;;28.85;24.30;;;;;;;6.83;82.92;101986.59;1039554;28;20679;-76
2023/04/10 00:54:05;;;;;;;30.88;26.17;;;;;;;6.86;82.78;101978.34;1043844;28;20317;-76
2023/04/10 00:54:37;;;;;;;28.08;23.58;;;;;;;7.01;81.96;101979.34;1043329;28;20341;-76
2023/04/10 00:55:09;;;;;;;33.40;25.05;;;;;;;6.96;82.13;101976.34;1043497;28;20329;-76
2023/04/10 00:55:42;;;;;;;32.83;26.63;;;;;;;6.78;82.15;101973.03;1041237;28;20292;-76
2023/04/10 00:56:14;;;;;;;32.10;23.83;;;;;;;6.83;82.47;101973.34;1039792;28;20300;-76
2023/04/10 00:56:46;;;;;;;34.58;25.90;;;;;;;6.90;82.36;101976.19;1040139;28;20307;-76
2023/04/10 00:57:17;;;;;;;36.40;24.65;;;;;;;6.86;81.79;101970.41;1040277;28;20899;-76
2023/04/10 00:57:49;;;;;;;32.20;26.35;;;;;;;6.92;81.31;101969.75;1035677;28;20348;-76
2023/04/10 00:58:20;;;;;;;27.55;22.70;;;;;;;6.95;81.80;101969.41;1039731;28;20318;-76
2023/04/10 00:58:52;;;;;;;34.67;23.92;;;;;;;6.97;81.28;101970.06;1032586;28;20798;-76
2023/04/10 00:59:24;;;;;;;31.95;23.35;;;;;;;6.88;81.12;101968.41;1035270;28;20316;-76
2023/04/10 00:59:55;;;;;;;29.15;23.88;;;;;;;6.97;81.05;101966.59;1035229;28;20319;-76
2023/04/10 01:00:27;;;;;;;27.55;23.88;;;;;;;6.91;81.42;101962.78;1036457;28;20307;-76
2023/04/10 01:00:59;;;;;;;30.60;24.30;;;;;;;6.99;80.90;101965.44;1034857;28;20304;-76
2023/04/10 01:01:31;;;;;;;31.05;24.58;;;;;;;6.99;80.83;101962.78;1040014;28;20308;-76
2023/04/10 01:02:03;;;;;;;33.03;25.70;;;;;;;6.97;81.30;101956.81;1043588;28;20302;-76
2023/04/10 01:02:35;;;;;;;30.42;23.77;;;;;;;6.92;81.42;101964.44;1039682;28;20303;-76
2023/04/10 01:03:08;;;;;;;28.27;22.58;;;;;;;6.97;81.28;101956.81;1043537;28;20302;-76
2023/04/10 01:03:41;;;;;;;32.67;24.90;;;;;;;6.85;81.32;101958.16;1040451;28;20299;-75
2023/04/10 01:04:13;;;;;;;30.75;24.85;;;;;;;6.87;81.66;101960.63;1037860;28;20282;-76
2023/04/10 01:04:45;;;;;;;28.52;23.75;;;;;;;6.89;81.78;101956.84;1031192;28;20313;-76
2023/04/10 01:05:17;;;;;;;27.67;22.98;;;;;;;6.98;81.10;101949.72;1029371;28;20389;-76
2023/04/10 01:06:16;;;;;;;31.77;23.08;;;;;;;6.94;81.02;101951.84;1028227;28;20294;-76
2023/04/10 01:06:56;;;;;;;29.92;21.83;;;;;;;7.04;80.84;101941.91;1035551;28;20289;-76
2023/04/10 01:07:46;;;;;;;31.10;22.75;;;;;;;6.93;81.28;101950.22;1043439;28;20296;-76
2023/04/10 01:08:34;;;;;;;38.45;25.23;;;;;;;6.83;81.35;101947.69;1043273;28;20041;-76
2023/04/10 01:09:35;;;;;;;29.33;23.08;;;;;;;6.91;81.79;101951.38;1038051;28;21551;-77
2023/04/10 01:10:33;;;;;;;27.63;20.55;;;;;;;6.92;81.41;101958.31;1035150;28;20300;-76
2023/04/10 01:11:15;;;;;;;30.73;21.13;;;;;;;6.73;82.21;101949.69;1042680;28;20299;-76
2023/04/10 01:11:52;;;;;;;25.40;19.17;;;;;;;6.59;82.68;101946.88;1040175;28;20733;-76
2023/04/10 01:12:57;;;;;;;32.83;21.38;;;;;;;6.90;82.74;101949.72;1035125;28;20797;-76
2023/04/10 01:13:34;;;;;;;29.15;19.58;;;;;;;6.70;82.65;101943.88;1034788;28;20320;-76
2023/04/10 01:14:32;;;;;;;30.08;20.40;;;;;;;6.63;83.02;101953.47;1037081;28;20288;-76
2023/04/10 01:15:07;;;;;;;30.25;21.40;;;;;;;6.66;83.23;101948.69;1030108;28;20311;-76
2023/04/10 01:15:57;;;;;;;30.55;22.23;;;;;;;6.45;84.07;101946.50;1035509;28;20316;-76
2023/04/10 01:16:42;;;;;;;27.63;19.73;;;;;;;6.52;84.42;101946.66;1035470;28;20308;-76
2023/04/10 01:17:55;;;;;;;29.35;20.83;;;;;;;6.54;84.15;101949.16;1043975;28;20495;-76
2023/04/10 01:18:33;;;;;;;30.92;20.63;;;;;;;6.61;83.99;101939.59;1039285;28;20674;-76
2023/04/10 01:19:20;;;;;;;29.40;20.50;;;;;;;6.59;83.59;101941.56;1044161;28;20291;-76
2023/04/10 01:19:59;;;;;;;35.38;22.15;;;;;;;6.62;83.50;101935.94;1038456;28;20295;-76
2023/04/10 01:20:33;;;;;;;29.15;20.30;;;;;;;6.64;83.33;101945.38;1034459;28;20314;-76
2023/04/10 01:21:08;;;;;;;29.67;19.77;;;;;;;6.59;83.40;101944.22;1033283;28;20293;-76
2023/04/10 01:21:40;;;;;;;27.90;19.13;;;;;;;6.67;83.29;101945.06;1034604;28;20358;-76
2023/04/10 01:22:13;;;;;;;29.98;20.73;;;;;;;6.64;82.70;101950.69;1030929;28;20391;-76
2023/04/10 01:22:55;;;;;;;27.38;20.42;;;;;;;6.72;83.14;101952.50;1032062;28;20305;-75
2023/04/10 01:23:30;;;;;;;27.15;19.17;;;;;;;6.67;83.57;101944.22;1033635;28;20301;-75
2023/04/10 01:24:31;;;;;;;27.65;19.42;;;;;;;6.68;83.18;101949.34;1033958;28;20649;-76
2023/04/10 01:25:24;;;;;;;30.30;21.30;;;;;;;6.59;83.10;101941.56;1038676;28;20299;-76
2023/04/10 01:26:02;;;;;;;27.25;20.00;;;;;;;6.43;84.21;101945.81;1042123;28;20069;-76
2023/04/10 01:27:07;;;;;;;28.67;20.20;;;;;;;6.25;85.28;101950.41;1036949;28;20931;-75
2023/04/10 01:27:57;;;;;;;;;;;;;;;6.35;85.55;101948.47;1037599;28;20046;-75
2023/04/10 01:28:53;;;;;;;24.05;18.50;;;;;;;6.47;85.59;101949.81;1040833;28;19969;-75
2023/04/10 01:29:26;;;;;;;26.77;19.33;;;;;;;6.44;85.72;101952.78;1039337;28;20767;-76
2023/04/10 01:30:02;;;;;;;27.75;19.02;;;;;;;6.31;85.90;101954.25;1037543;28;20297;-75
2023/04/10 01:30:35;;;;;;;25.35;18.95;;;;;;;6.34;86.29;101953.91;1034858;28;20348;-75
2023/04/10 01:31:10;;;;;;;27.25;19.20;;;;;;;6.34;86.23;101954.75;1031130;28;20308;-75
2023/04/10 01:31:52;;;;;;;32.33;22.48;;;;;;;6.14;86.90;101953.34;1032890;28;20815;-75
2023/04/10 01:32:24;;;;;;;25.40;18.75;;;;;;;6.24;86.84;101953.19;1031372;28;20320;-76
2023/04/10 01:32:58;;;;;;;26.17;19.42;;;;;;;6.28;87.01;101951.88;1032911;28;20684;-76
2023/04/10 01:33:38;;;;;;;25.65;19.13;;;;;;;6.25;87.10;101950.41;1033217;28;20312;-75
2023/04/10 01:34:19;;;;;;;31.23;21.30;;;;;;;6.23;87.19;101951.53;1041276;28;20801;-75
2023/04/10 01:34:53;;;;;;;29.70;19.55;;;;;;;6.14;87.00;101956.00;1043277;28;20041;-76
2023/04/10 01:35:28;;;;;;;25.35;20.17;;;;;;;6.20;87.13;101948.22;1040586;28;20075;-76
2023/04/10 01:36:02;;;;;;;30.58;19.20;;;;;;;6.36;86.66;101950.13;1032941;28;20301;-75
2023/04/10 01:36:48;;;;;;;27.95;20.27;;;;;;;6.17;86.45;101950.38;1026976;28;20386;-75
2023/04/10 01:37:30;;;;;;;30.02;19.30;;;;;;;6.19;87.46;101951.03;1036491;28;20305;-75
2023/04/10 01:38:04;;;;;;;25.63;18.80;;;;;;;6.01;87.25;101948.47;1040331;28;20338;-75
2023/04/10 01:38:36;;;;;;;31.90;20.25;;;;;;;6.05;87.81;101949.84;1038994;28;20308;-75
2023/04/10 01:39:09;;;;;;;29.00;19.20;;;;;;;6.16;87.66;101956.66;1034411;28;20359;-75
2023/04/10 01:39:41;;;;;;;28.38;19.85;;;;;;;6.20;87.56;101947.41;1034677;28;20325;-76
2023/04/10 01:40:14;;;;;;;26.38;18.55;;;;;;;6.09;87.71;101953.00;1031962;28;20313;-75
2023/04/10 01:40:50;;;;;;;24.15;18.40;;;;;;;6.10;87.71;101952.00;1030189;28;20336;-76
2023/04/10 01:41:30;;;;;;;26.75;18.88;;;;;;;6.01;88.48;101948.47;1029022;28;20333;-76
2023/04/10 01:42:04;;;;;;;28.48;19.67;;;;;;;6.18;88.25;101952.84;1028769;28;20291;-75
2023/04/10 01:42:47;;;;;;;23.40;18.70;;;;;;;6.10;88.23;101952.00;1034106;28;20296;-75
2023/04/10 01:43:20;;;;;;;27.00;19.30;;;;;;;6.05;88.45;101954.31;1032514;28;20301;-75
2023/04/10 01:43:55;;;;;;;28.13;19.42;;;;;;;6.01;88.40;101950.28;1027094;28;20373;-76
2023/04/10 01:44:28;;;;;;;28.85;19.77;;;;;;;6.03;88.53;101951.00;1035626;28;20334;-75
2023/04/10 01:45:00;;;;;;;27.52;19.85;;;;;;;6.07;88.77;101953.16;1032365;28;20297;-75
2023/04/10 01:45:32;;;;;;;29.75;19.75;;;;;;;5.99;88.81;101949.63;1035945;28;20336;-75
2023/04/10 01:46:04;;;;;;;26.05;18.58;;;;;;;6.00;88.84;101943.34;1033294;28;20880;-76
2023/04/10 01:46:37;;;;;;;22.85;18.08;;;;;;;6.18;88.49;101952.84;1029898;28;20720;-76
2023/04/10 01:47:08;;;;;;;25.98;20.25;;;;;;;6.07;88.20;101952.34;1027633;28;20879;-76
2023/04/10 01:47:41;;;;;;;25.83;19.45;;;;;;;5.88;87.81;101940.97;1033889;28;20678;-75
2023/04/10 01:48:15;;;;;;;24.75;18.45;;;;;;;5.99;88.24;101949.63;1031956;28;20677;-75
2023/04/10 01:48:47;;;;;;;32.28;20.27;;;;;;;5.95;88.14;101945.66;1032941;28;20372;-75
2023/04/10 01:49:19;;;;;;;24.42;17.92;;;;;;;5.93;88.64;101956.38;1031977;28;20309;-76
2023/04/10 01:49:52;;;;;;;24.63;19.38;;;;;;;5.89;88.73;101953.22;1032109;28;20838;-76
2023/04/10 01:50:26;;;;;;;25.55;19.63;;;;;;;6.04;88.42;101947.38;1031252;28;20297;-76
2023/04/10 01:51:01;;;;;;;27.92;18.70;;;;;;;5.94;88.86;101947.47;1033371;28;20367;-76
2023/04/10 01:51:34;;;;;;;25.23;19.08;;;;;;;5.80;89.32;101951.53;1032698;28;20301;-76
2023/04/10 01:52:12;;;;;;;28.27;17.48;;;;;;;5.98;89.40;101954.09;1035061;28;20925;-75
2023/04/10 01:52:46;;;;;;;22.20;18.15;;;;;;;5.94;89.84;101958.03;1034810;28;20312;-75
2023/04/10 01:53:22;;;;;;;24.55;18.55;;;;;;;5.97;89.33;101949.78;1034216;28;20304;-76
2023/04/10 01:53:54;;;;;;;26.77;19.05;;;;;;;5.85;89.16;101954.50;1029529;28;20321;-75
2023/04/10 01:54:31;;;;;;;27.70;18.40;;;;;;;5.81;89.98;101952.34;1027312;28;20310;-76
2023/04/10 01:55:07;;;;;;;26.73;19.67;;;;;;;5.91;89.90;101953.06;1032352;28;20374;-76
2023/04/10 01:55:53;;;;;;;26.60;17.80;;;;;;;6.11;89.50;101951.84;1035115;28;20687;-75
2023/04/10 01:56:25;;;;;;;26.48;19.45;;;;;;;6.05;89.62;101949.03;1037430;28;20311;-75
2023/04/10 01:57:01;;;;;;;31.20;20.05;;;;;;;5.95;89.67;101948.28;1031370;28;20297;-76
2023/04/10 01:57:35;;;;;;;26.45;19.13;;;;;;;5.89;89.32;101950.59;1030665;28;20316;-76
2023/04/10 01:58:07;;;;;;;28.75;19.63;;;;;;;5.79;89.75;101949.84;1034711;28;20340;-76
2023/04/10 01:58:39;;;;;;;24.90;19.02;;;;;;;5.87;89.93;101946.41;1032498;28;20305;-75
2023/04/10 01:59:11;;;;;;;24.42;19.50;;;;;;;5.74;90.71;101951.28;1032119;28;20712;-76
2023/04/10 01:59:43;;;;;;;22.65;17.83;;;;;;;5.86;90.21;101945.59;1030837;28;20687;-76
2023/04/10 02:00:15;;;;;;;27.65;18.40;;;;;;;5.74;90.33;101951.28;1033478;28;20301;-76
2023/04/10 02:00:47;;;;;;;24.52;17.30;;;;;;;5.72;90.98;101947.97;1036070;28;20300;-76
2023/04/10 02:01:20;;;;;;;26.50;19.63;;;;;;;5.92;90.68;101945.97;1036046;28;20822;-76
2023/04/10 02:02:00;;;;;;;25.80;19.67;;;;;;;5.77;90.52;101946.53;1034624;28;20297;-75
2023/04/10 02:02:33;;;;;;;25.85;19.63;;;;;;;5.76;90.57;101942.25;1034866;28;20492;-76
2023/04/10 02:03:05;;;;;;;28.35;19.13;;;;;;;5.83;90.85;101945.91;1033090;28;20294;-76
2023/04/10 02:03:37;;;;;;;29.65;19.80;;;;;;;5.85;89.53;101946.56;1033230;28;20329;-75
2023/04/10 02:04:09;;;;;;;25.50;18.65;;;;;;;5.72;90.04;101947.97;1034698;28;20316;-76
2023/04/10 02:04:41;;;;;;;24.63;18.67;;;;;;;5.87;90.11;101947.25;1034566;28;20823;-75
2023/04/10 02:05:14;;;;;;;26.08;18.90;;;;;;;5.98;89.86;101950.63;1038911;28;20299;-75
2023/04/10 02:06:04;;;;;;;26.67;19.23;;;;;;;6.02;89.31;101946.66;1039502;28;20296;-75
2023/04/10 02:07:10;;;;;;;27.77;18.92;;;;;;;6.01;89.07;101945.00;1034503;28;20305;-75
2023/04/10 02:07:46;;;;;;;25.95;18.13;;;;;;;5.95;89.02;101943.84;1034101;28;20300;-75
2023/04/10 02:08:26;;;;;;;27.02;18.92;;;;;;;6.06;88.99;101946.22;1033229;28;20301;-75
2023/04/10 02:09:09;;;;;;;24.95;18.58;;;;;;;6.02;88.77;101944.03;1037269;28;20299;-76
2023/04/10 02:09:53;;;;;;;24.70;18.83;;;;;;;6.11;88.74;101937.78;1033252;28;20653;-76
2023/04/10 02:10:42;;;;;;;24.83;18.38;;;;;;;5.92;89.04;101943.31;1033849;28;20371;-75
2023/04/10 02:11:14;;;;;;;26.02;17.55;;;;;;;5.79;89.24;101939.28;1039595;28;20671;-75
2023/04/10 02:12:00;;;;;;;26.75;17.85;;;;;;;5.83;89.43;101940.63;1047065;28;20743;-76
2023/04/10 02:12:52;;;;;;;28.45;17.83;;;;;;;6.03;88.89;101935.97;1043416;28;20323;-76
2023/04/10 02:13:28;;;;;;;29.00;18.45;;;;;;;6.11;88.45;101935.97;1040615;28;20326;-76
2023/04/10 02:14:03;;;;;;;23.67;18.25;;;;;;;6.03;88.47;101935.97;1034887;28;20309;-75
2023/04/10 02:14:41;;;;;;;26.50;17.08;;;;;;;5.98;88.24;101940.03;1035357;28;20308;-76
2023/04/10 02:15:15;;;;;;;25.42;19.17;;;;;;;6.02;88.42;101939.56;1031528;28;20305;-76
2023/04/10 02:15:49;;;;;;;28.83;17.95;;;;;;;6.06;88.26;101932.16;1033385;28;20902;-75
2023/04/10 02:16:22;;;;;;;26.33;18.85;;;;;;;6.05;88.06;101938.44;1035034;28;20304;-75
2023/04/10 02:16:55;;;;;;;26.65;18.92;;;;;;;5.99;88.53;101939.06;1029799;28;20301;-76
2023/04/10 02:17:28;;;;;;;24.58;19.45;;;;;;;6.06;88.69;101940.91;1028495;28;20306;-75
2023/04/10 02:18:03;;;;;;;25.27;18.10;;;;;;;6.06;88.04;101934.81;1036349;28;20296;-76
2023/04/10 02:18:36;;;;;;;23.50;17.20;;;;;;;6.02;87.90;101936.91;1034455;28;20332;-76
2023/04/10 02:19:09;;;;;;;26.17;18.13;;;;;;;5.98;88.63;101934.75;1034697;28;20336;-76
2023/04/10 02:19:41;;;;;;;32.08;18.48;;;;;;;5.93;89.04;101934.41;1033624;28;20316;-76
2023/04/10 02:20:15;;;;;;;26.23;18.65;;;;;;;5.93;89.27;101934.41;1032379;28;20742;-76
2023/04/10 02:20:46;;;;;;;24.65;17.10;;;;;;;5.81;90.35;101932.03;1034827;28;20308;-76
2023/04/10 02:21:18;;;;;;;26.55;18.55;;;;;;;5.79;90.53;101934.00;1028765;28;20301;-76
2023/04/10 02:21:50;;;;;;;24.10;17.50;;;;;;;5.86;90.86;101937.66;1023637;28;20307;-77
2023/04/10 02:22:24;;;;;;;24.65;19.10;;;;;;;5.99;90.37;101933.75;1024077;28;20349;-76
2023/04/10 02:22:58;;;;;;;24.35;17.90;;;;;;;5.97;89.64;101935.75;1028309;28;20320;-76
2023/04/10 02:23:29;;;;;;;24.40;17.33;;;;;;;5.90;90.16;101940.84;1031887;28;20309;-76
2023/04/10 02:24:01;;;;;;;29.27;18.48;;;;;;;5.84;89.52;101936.16;1032216;28;20304;-77
2023/04/10 02:24:33;;;;;;;26.23;16.63;;;;;;;6.04;89.46;101927.03;1037073;28;20315;-76
2023/04/10 02:25:06;;;;;;;24.90;18.35;;;;;;;6.03;89.19;101929.84;1035682;28;20829;-76
2023/04/10 02:25:38;;;;;;;27.40;18.80;;;;;;;5.97;88.40;101927.81;1031589;28;20344;-76
2023/04/10 02:26:09;;;;;;;23.95;17.92;;;;;;;6.08;88.22;101930.19;1034607;28;20767;-76
2023/04/10 02:26:58;;;;;;;25.17;17.85;;;;;;;6.16;87.48;101930.19;1037828;28;20319;-76
2023/04/10 02:27:33;;;;;;;26.90;16.85;;;;;;;6.12;87.51;101929.69;1037776;28;20308;-76
2023/04/10 02:28:06;;;;;;;26.95;17.65;;;;;;;6.13;87.61;101927.88;1030851;28;20679;-76
2023/04/10 02:28:38;;;;;;;21.48;16.48;;;;;;;6.16;87.26;101928.38;1030043;28;20328;-76
2023/04/10 02:29:10;;;;;;;23.88;16.77;;;;;;;6.12;86.87;101934.16;1031751;28;20318;-76
2023/04/10 02:29:42;;;;;;;22.33;16.08;;;;;;;5.99;87.46;101926.66;1034680;28;20695;-76
2023/04/10 02:30:14;;;;;;;24.92;18.33;;;;;;;5.96;87.83;101928.78;1039782;28;20430;-76
2023/04/10 02:30:46;;;;;;;26.13;18.10;;;;;;;6.01;87.79;101921.22;1039168;28;20364;-76
2023/04/10 02:31:17;;;;;;;24.73;16.33;;;;;;;6.05;87.77;101925.22;1043807;28;20303;-76
2023/04/10 02:31:49;;;;;;;21.77;16.48;;;;;;;6.12;87.11;101923.56;1040211;28;20307;-76
2023/04/10 02:32:23;;;;;;;21.95;17.08;;;;;;;6.19;86.99;101924.59;1035016;28;20316;-76
2023/04/10 02:32:55;;;;;;;28.55;19.08;;;;;;;6.08;87.10;101922.25;1035358;28;20300;-75
2023/04/10 02:33:26;;;;;;;24.55;16.48;;;;;;;6.13;86.87;101919.94;1034658;28;20296;-76
2023/04/10 02:33:58;;;;;;;23.60;16.70;;;;;;;6.06;88.28;101922.41;1036181;28;20308;-76
2023/04/10 02:34:29;;;;;;;20.70;15.15;;;;;;;5.97;88.97;101925.16;1042801;28;20295;-76
2023/04/10 02:35:02;;;;;;;24.38;17.63;;;;;;;5.94;89.06;101928.13;1039355;28;20315;-76
2023/04/10 02:35:35;;;;;;;25.17;18.02;;;;;;;6.12;89.06;101924.41;1036485;28;20301;-75
2023/04/10 02:36:07;;;;;;;23.48;17.52;;;;;;;5.96;88.51;101923.50;1036101;28;20300;-76
2023/04/10 02:36:39;;;;;;;26.58;18.60;;;;;;;5.74;89.10;101924.84;1039518;28;20403;-76
2023/04/10 02:37:12;;;;;;;21.25;16.67;;;;;;;5.70;89.64;101927.00;1036504;28;20794;-76
2023/04/10 02:37:46;;;;;;;22.65;15.77;;;;;;;5.98;90.06;101926.81;1037268;28;20308;-76
2023/04/10 02:38:19;;;;;;;24.38;16.23;;;;;;;5.79;89.31;101928.72;1034755;28;20667;-75
2023/04/10 02:38:51;;;;;;;22.58;16.73;;;;;;;5.71;90.38;101926.00;1032284;28;20369;-76
2023/04/10 02:39:24;;;;;;;28.23;16.60;;;;;;;5.67;90.08;101921.19;1032615;28;20775;-75
2023/04/10 02:39:56;;;;;;;22.65;17.20;;;;;;;5.88;90.95;101921.63;1036413;28;20332;-76
2023/04/10 02:40:29;;;;;;;19.67;16.33;;;;;;;5.82;89.92;101925.75;1036755;28;20308;-76